Saint Rose, Louisiana
Current Conditions -  °F | °C
As of 7:53 PM on Saturday 22 Nov 2014 (Local Time) from KMSY Reporting Station
Overcast Overcast  
Wind Chill: 63°   Ceiling: 600
Heat Index: 63°   Visibility: 8mi
Dew Point: 60°   Wind: 12mph
Humidity: 90%   Direction: 100°E
Pressure: 29.99"   Gusts: NA
Location:  29.96°N, 90.31°W
Report Text: KMSY 230153Z 10010KT 8SM BKN006 OVC012 17/16 A2999 RMK AO2 SLP157 BKN V OVC T01720156
Loading
Personal Weather Stations






























Interactive Weather Map New forecast layout! Learn more

10-Day Weather Forecast

Advertisements
Track Severe Weather on mobile